Terminal Aerodrome Forecast
Issued by NWS

Home | Current Version | Previous Version | Text Only | Print | Product List | Glossary On
Versions: 1 2 3 4 5 6 7 8 9 10 11 12 13
342
FTUS44 KEPZ 232320
TAFTCS
TAF
KTCS 232320Z 2400/2424 12009KT P6SM VCTS SCT050CB BKN120 BKN250
     FM240600 23008KT P6SM SCT060 BKN100 BKN200
     FM241600 14007KT P6SM FEW050 SCT100 SCT250
     FM241900 21011KT P6SM SCT060 BKN100 BKN200=

USA.gov is the U.S. government's official web portal to all federal, state and local government web resources and services.